createdAt,value
2022-08-04T00:00:14.808Z,16.70
2022-08-04T00:03:19.470Z,16.80
2022-08-04T00:06:23.031Z,16.60
2022-08-04T00:08:57.408Z,16.70
2022-08-04T00:11:30.751Z,16.60
2022-08-04T00:14:11.552Z,16.70
2022-08-04T00:16:58.123Z,16.70
2022-08-04T00:19:40.741Z,16.70
2022-08-04T00:22:11.823Z,16.60
2022-08-04T00:24:40.336Z,16.60
2022-08-04T00:27:08.869Z,16.60
2022-08-04T00:29:39.472Z,16.60
2022-08-04T00:32:08.705Z,16.60
2022-08-04T00:34:37.339Z,16.50
2022-08-04T00:37:06.771Z,16.40
2022-08-04T00:39:34.934Z,16.50
2022-08-04T00:42:23.035Z,16.50
2022-08-04T00:45:30.069Z,16.60
2022-08-04T00:48:38.602Z,16.40
2022-08-04T00:51:15.166Z,16.20
2022-08-04T00:54:20.647Z,16.20
2022-08-04T00:57:33.644Z,16.20
2022-08-04T01:00:10.828Z,16.10
2022-08-04T01:03:07.984Z,16.20
2022-08-04T01:05:47.382Z,16.20
2022-08-04T01:08:55.390Z,16.20
2022-08-04T01:12:02.374Z,16.30
2022-08-04T01:15:10.458Z,16.20
2022-08-04T01:17:43.358Z,16.30
2022-08-04T01:20:17.151Z,16.20
2022-08-04T01:23:20.840Z,16.20
2022-08-04T01:26:42.002Z,16.20
2022-08-04T01:29:10.192Z,16.10
2022-08-04T01:32:03.522Z,16.10
2022-08-04T01:34:42.755Z,16.10
2022-08-04T01:37:30.803Z,16.10
2022-08-04T01:40:08.433Z,16.10
2022-08-04T01:42:38.418Z,16.10
2022-08-04T01:45:15.495Z,16.00
2022-08-04T01:47:56.069Z,16.00
2022-08-04T01:50:25.444Z,16.00
2022-08-04T01:52:55.181Z,16.10
2022-08-04T01:55:24.573Z,16.20
2022-08-04T01:58:12.766Z,16.20
2022-08-04T02:00:56.571Z,16.20
2022-08-04T02:04:18.226Z,16.10
2022-08-04T02:07:08.478Z,16.00
2022-08-04T02:10:08.125Z,16.00
2022-08-04T02:12:58.941Z,16.00
2022-08-04T02:16:09.907Z,15.80
2022-08-04T02:18:56.778Z,16.00
2022-08-04T02:21:27.727Z,15.90
2022-08-04T02:24:16.348Z,15.80
2022-08-04T02:26:50.200Z,16.00
2022-08-04T02:29:52.752Z,15.90
2022-08-04T02:32:30.009Z,15.80
2022-08-04T02:35:12.993Z,15.60
2022-08-04T02:37:51.851Z,15.60
2022-08-04T02:40:21.593Z,15.60
2022-08-04T02:42:51.123Z,15.60
2022-08-04T02:45:23.050Z,15.60
2022-08-04T02:48:28.687Z,15.50
2022-08-04T02:50:44.587Z,15.50
2022-08-04T02:53:18.344Z,15.40
2022-08-04T02:55:50.751Z,15.50
2022-08-04T02:58:23.620Z,15.40
2022-08-04T03:00:51.860Z,15.40
2022-08-04T03:03:36.419Z,15.40
2022-08-04T03:06:54.800Z,15.40
2022-08-04T03:09:52.701Z,15.40
2022-08-04T03:13:06.363Z,15.30
2022-08-04T03:15:55.115Z,15.30
2022-08-04T03:18:54.838Z,15.30
2022-08-04T03:22:01.118Z,15.30
2022-08-04T03:24:58.930Z,15.20
2022-08-04T03:27:47.794Z,15.20
2022-08-04T03:30:43.578Z,15.10
2022-08-04T03:34:16.473Z,15.10
2022-08-04T03:40:24.956Z,15.10
2022-08-04T03:43:56.824Z,15.00
2022-08-04T03:46:54.077Z,15.00
2022-08-04T03:49:58.258Z,15.00
2022-08-04T03:53:03.056Z,14.90
2022-08-04T03:56:08.742Z,14.90
2022-08-04T03:58:48.310Z,15.00
2022-08-04T04:02:00.973Z,14.90
2022-08-04T04:04:57.832Z,14.80
2022-08-04T04:08:03.935Z,14.90
2022-08-04T04:11:17.807Z,14.80
2022-08-04T04:14:31.858Z,14.90
2022-08-04T04:17:52.683Z,14.70
2022-08-04T04:21:14.617Z,14.80
2022-08-04T04:24:06.037Z,14.70
2022-08-04T04:26:54.738Z,14.70
2022-08-04T04:30:05.060Z,14.60
2022-08-04T04:33:06.463Z,14.60
2022-08-04T04:35:52.519Z,14.60
2022-08-04T04:38:40.967Z,14.60
2022-08-04T04:41:26.844Z,14.50
2022-08-04T04:44:09.225Z,14.70
2022-08-04T04:46:54.859Z,14.70
2022-08-04T04:49:57.347Z,14.60
2022-08-04T04:52:42.239Z,14.60
2022-08-04T04:55:37.023Z,14.50
2022-08-04T04:58:05.443Z,14.60
2022-08-04T05:00:46.524Z,14.60
2022-08-04T05:04:06.644Z,14.70
2022-08-04T05:07:18.885Z,14.60
2022-08-04T05:10:29.495Z,14.60
2022-08-04T05:14:37.448Z,14.60
2022-08-04T05:16:37.633Z,14.60
2022-08-04T05:19:31.126Z,14.60
2022-08-04T05:22:18.922Z,14.60
2022-08-04T05:25:00.687Z,14.60
2022-08-04T05:28:02.993Z,14.50
2022-08-04T05:30:35.565Z,14.60
2022-08-04T05:33:11.161Z,14.60
2022-08-04T05:36:16.644Z,14.60
2022-08-04T05:38:40.980Z,14.70
2022-08-04T05:41:10.863Z,14.80
2022-08-04T05:43:43.438Z,14.90
2022-08-04T05:46:14.056Z,15.00
2022-08-04T05:48:43.495Z,15.00
2022-08-04T05:51:12.491Z,15.20
2022-08-04T05:53:41.512Z,15.20
2022-08-04T05:56:12.214Z,15.30
2022-08-04T05:58:41.050Z,15.40
2022-08-04T06:01:12.395Z,15.50
2022-08-04T06:03:41.322Z,15.70
2022-08-04T06:06:11.395Z,15.90
2022-08-04T06:08:39.223Z,15.90
2022-08-04T06:11:11.923Z,16.00
2022-08-04T06:14:01.007Z,16.10
2022-08-04T06:16:38.403Z,16.30
2022-08-04T06:20:03.633Z,16.40
2022-08-04T06:22:00.249Z,16.50
2022-08-04T06:24:32.617Z,16.60
2022-08-04T06:27:03.153Z,16.70
2022-08-04T06:29:33.205Z,16.80
2022-08-04T06:32:28.013Z,16.90
2022-08-04T06:34:57.662Z,17.00
2022-08-04T06:37:41.967Z,17.10
2022-08-04T06:40:30.095Z,17.30
2022-08-04T06:43:06.529Z,17.40
2022-08-04T06:45:40.854Z,17.50
2022-08-04T06:48:13.377Z,17.60
2022-08-04T06:51:25.816Z,17.60
2022-08-04T06:53:31.009Z,17.70
2022-08-04T06:56:01.689Z,17.80
2022-08-04T06:58:33.405Z,17.90
2022-08-04T07:01:02.411Z,18.00
2022-08-04T07:03:31.262Z,18.10
2022-08-04T07:06:05.966Z,18.20
2022-08-04T07:08:42.030Z,18.20
2022-08-04T07:11:10.118Z,18.30
2022-08-04T07:13:41.947Z,18.30
2022-08-04T07:16:14.674Z,18.40
2022-08-04T07:18:42.560Z,18.40
2022-08-04T07:21:11.430Z,18.50
2022-08-04T07:23:39.059Z,18.60
2022-08-04T07:26:12.719Z,18.60
2022-08-04T07:28:41.652Z,18.70
2022-08-04T07:31:33.495Z,18.70
2022-08-04T07:34:17.458Z,18.80
2022-08-04T07:36:53.098Z,18.90
2022-08-04T07:39:28.516Z,18.90
2022-08-04T07:42:02.338Z,19.00
2022-08-04T07:44:35.486Z,19.00
2022-08-04T07:47:06.328Z,19.10
2022-08-04T07:49:54.476Z,19.20
2022-08-04T07:52:22.793Z,19.30
2022-08-04T07:54:51.596Z,19.30
2022-08-04T07:57:40.234Z,19.40
2022-08-04T08:00:08.798Z,19.40
2022-08-04T08:02:37.518Z,19.50
2022-08-04T08:05:07.716Z,19.60
2022-08-04T08:07:35.110Z,19.70
2022-08-04T08:10:02.680Z,19.70
2022-08-04T08:12:37.906Z,19.80
2022-08-04T08:15:20.883Z,19.90
2022-08-04T08:20:32.970Z,20.00
2022-08-04T08:23:02.960Z,20.10
2022-08-04T08:25:34.203Z,20.20
2022-08-04T08:28:04.661Z,20.20
2022-08-04T08:30:33.746Z,20.30
2022-08-04T08:33:06.457Z,20.30
2022-08-04T08:35:54.828Z,20.30
2022-08-04T08:39:03.739Z,20.40
2022-08-04T08:42:07.858Z,20.50
2022-08-04T08:44:56.062Z,20.50
2022-08-04T08:48:05.338Z,20.60
2022-08-04T08:50:52.762Z,20.60
2022-08-04T08:53:53.808Z,20.70
2022-08-04T08:56:48.092Z,20.80
2022-08-04T08:59:57.443Z,20.90
2022-08-04T09:02:42.412Z,21.00
2022-08-04T09:05:35.736Z,21.10
2022-08-04T09:08:33.312Z,21.10
2022-08-04T09:11:16.929Z,21.20
2022-08-04T09:14:15.508Z,21.20
2022-08-04T09:17:03.891Z,21.30
2022-08-04T09:19:39.623Z,21.30
2022-08-04T09:22:30.220Z,21.40
2022-08-04T09:25:20.417Z,21.50
2022-08-04T09:28:04.389Z,21.40
2022-08-04T09:30:54.960Z,21.60
2022-08-04T09:33:44.918Z,21.70
2022-08-04T09:36:37.417Z,21.60
2022-08-04T09:39:33.579Z,21.80
2022-08-04T09:45:15.622Z,21.80
2022-08-04T09:48:09.896Z,21.80
2022-08-04T09:50:45.781Z,21.90
2022-08-04T09:53:53.222Z,22.00
2022-08-04T09:56:46.307Z,22.00
2022-08-04T09:59:27.876Z,22.20
2022-08-04T10:02:06.490Z,22.20
2022-08-04T10:04:38.076Z,22.30
2022-08-04T10:07:40.463Z,22.40
2022-08-04T10:10:38.938Z,22.50
2022-08-04T10:13:18.002Z,22.50
2022-08-04T10:16:06.610Z,22.60
2022-08-04T10:18:45.820Z,22.70
2022-08-04T10:21:27.796Z,22.80
2022-08-04T10:24:33.032Z,22.90
2022-08-04T10:27:12.502Z,23.00
2022-08-04T10:29:47.575Z,23.10
2022-08-04T10:32:43.138Z,23.20
2022-08-04T10:35:22.210Z,23.40
2022-08-04T10:38:25.139Z,23.50
2022-08-04T10:41:04.214Z,23.60
2022-08-04T10:46:43.984Z,24.00
2022-08-04T10:49:31.292Z,24.20
2022-08-04T10:52:32.330Z,24.30
2022-08-04T10:56:06.609Z,24.40
2022-08-04T10:58:47.149Z,24.70
2022-08-04T11:02:00.034Z,24.90
2022-08-04T11:05:18.103Z,25.10
2022-08-04T11:07:50.437Z,25.30
2022-08-04T11:10:25.483Z,25.50
2022-08-04T11:13:03.354Z,25.70
2022-08-04T11:15:49.614Z,25.80
2022-08-04T11:19:07.802Z,26.00
2022-08-04T11:21:44.810Z,26.00
2022-08-04T11:24:26.373Z,26.30
2022-08-04T11:27:05.176Z,26.50
2022-08-04T11:30:09.476Z,26.60
2022-08-04T11:32:46.442Z,26.80
2022-08-04T11:35:43.322Z,26.90
2022-08-04T11:38:52.058Z,27.20
2022-08-04T11:41:33.773Z,27.30
2022-08-04T11:44:09.169Z,27.50
2022-08-04T11:46:53.005Z,27.60
2022-08-04T11:49:56.570Z,27.90
2022-08-04T11:52:28.537Z,28.30
2022-08-04T11:54:58.007Z,28.40
2022-08-04T11:57:35.703Z,28.60
2022-08-04T12:00:12.685Z,28.70
2022-08-04T12:03:19.554Z,28.90
2022-08-04T12:05:52.357Z,29.00
2022-08-04T12:08:43.371Z,29.10
2022-08-04T12:11:28.598Z,29.30
2022-08-04T12:14:27.385Z,29.60
2022-08-04T12:17:05.504Z,29.50
2022-08-04T12:20:04.894Z,29.70
2022-08-04T12:22:50.233Z,29.90
2022-08-04T12:25:33.144Z,29.90
2022-08-04T12:28:08.421Z,29.90
2022-08-04T12:30:58.484Z,30.00
2022-08-04T12:34:04.694Z,30.10
2022-08-04T12:37:09.592Z,30.30
2022-08-04T12:40:27.934Z,30.60
2022-08-04T12:43:13.718Z,30.80
2022-08-04T12:48:22.630Z,31.10
2022-08-04T12:50:54.211Z,31.20
2022-08-04T12:53:31.496Z,31.20
2022-08-04T12:56:02.780Z,31.30
2022-08-04T12:58:42.633Z,31.40
2022-08-04T13:02:09.426Z,31.40
2022-08-04T13:04:20.241Z,31.50
2022-08-04T13:14:36.423Z,31.40
2022-08-04T13:17:04.304Z,31.70
2022-08-04T13:19:33.857Z,31.70
2022-08-04T13:22:09.430Z,31.80
2022-08-04T13:24:56.901Z,31.70
2022-08-04T13:27:29.128Z,31.70
2022-08-04T13:30:14.716Z,31.90
2022-08-04T13:32:57.747Z,31.90
2022-08-04T13:35:55.717Z,31.40
2022-08-04T13:38:18.980Z,31.60
2022-08-04T13:40:48.297Z,31.80
2022-08-04T13:46:28.267Z,32.30
2022-08-04T13:52:04.633Z,32.60
2022-08-04T13:54:45.934Z,32.80
2022-08-04T13:57:44.197Z,32.80
2022-08-04T14:00:12.653Z,33.20
2022-08-04T14:03:03.013Z,33.20
2022-08-04T14:05:36.982Z,33.20
2022-08-04T14:08:29.095Z,33.40
2022-08-04T14:10:59.993Z,33.50
2022-08-04T14:13:41.499Z,33.60
2022-08-04T14:16:22.094Z,33.60
2022-08-04T14:19:00.873Z,33.60
2022-08-04T14:21:28.642Z,33.60
2022-08-04T14:23:57.685Z,33.50
2022-08-04T14:26:33.857Z,33.40
2022-08-04T14:29:27.628Z,33.30
2022-08-04T14:32:13.974Z,33.10
2022-08-04T14:34:45.937Z,32.60
2022-08-04T14:37:19.719Z,33.10
2022-08-04T14:40:08.441Z,33.40
2022-08-04T14:42:55.452Z,33.60
2022-08-04T14:45:54.251Z,33.70
2022-08-04T14:48:23.742Z,33.80
2022-08-04T14:50:52.225Z,33.90
2022-08-04T14:53:23.584Z,33.80
2022-08-04T14:55:58.985Z,33.80
2022-08-04T14:58:39.058Z,34.00
2022-08-04T15:01:12.892Z,33.60
2022-08-04T15:03:50.900Z,32.70
2022-08-04T15:06:28.568Z,32.00
2022-08-04T15:13:07.363Z,31.60
2022-08-04T15:15:37.297Z,31.90
2022-08-04T15:22:05.346Z,32.20
2022-08-04T15:24:41.910Z,32.20
2022-08-04T15:27:11.725Z,32.50
2022-08-04T15:30:00.804Z,32.40
2022-08-04T15:36:27.946Z,32.60
2022-08-04T15:43:33.174Z,32.50
2022-08-04T15:46:33.080Z,32.40
2022-08-04T15:48:50.661Z,32.40
2022-08-04T15:51:32.083Z,32.30
2022-08-04T15:54:56.466Z,32.20
2022-08-04T15:58:02.237Z,32.20
2022-08-04T16:00:49.634Z,32.20
2022-08-04T16:04:00.277Z,32.10
2022-08-04T16:06:22.579Z,32.00
2022-08-04T16:08:57.385Z,31.80
2022-08-04T16:11:30.804Z,31.70
2022-08-04T16:14:01.552Z,31.50
2022-08-04T16:16:49.286Z,31.20
2022-08-04T16:20:01.745Z,31.00
2022-08-04T16:22:39.885Z,30.80
2022-08-04T16:25:11.490Z,30.60
2022-08-04T16:27:44.769Z,30.30
2022-08-04T16:30:15.225Z,30.30
2022-08-04T16:32:48.083Z,30.10
2022-08-04T16:35:28.405Z,29.90
2022-08-04T16:38:14.950Z,29.70
2022-08-04T16:40:43.269Z,29.70
2022-08-04T16:43:17.118Z,29.40
2022-08-04T16:45:51.925Z,29.20
2022-08-04T16:48:32.200Z,29.10
2022-08-04T16:51:10.813Z,28.90
2022-08-04T16:53:58.696Z,28.70
2022-08-04T16:56:35.372Z,28.50
2022-08-04T16:59:12.333Z,28.30
2022-08-04T17:01:52.695Z,28.20
2022-08-04T17:04:35.072Z,28.10
2022-08-04T17:07:06.015Z,27.90
2022-08-04T17:09:33.502Z,27.80
2022-08-04T17:12:00.751Z,27.70
2022-08-04T17:14:31.270Z,27.50
2022-08-04T17:17:02.508Z,27.50
2022-08-04T17:19:29.769Z,27.40
2022-08-04T17:22:07.216Z,27.20
2022-08-04T17:24:41.331Z,27.20
2022-08-04T17:28:19.521Z,27.10
2022-08-04T17:32:25.538Z,26.90
2022-08-04T17:35:00.437Z,26.90
2022-08-04T17:40:25.409Z,26.70
2022-08-04T17:44:03.015Z,26.70
2022-08-04T17:46:28.933Z,26.60
2022-08-04T17:52:41.506Z,26.40
2022-08-04T18:05:50.133Z,26.10
2022-08-04T18:11:03.989Z,25.80
2022-08-04T18:13:42.849Z,25.70
2022-08-04T18:16:22.301Z,25.70
2022-08-04T18:19:14.526Z,25.60
2022-08-04T18:21:46.987Z,25.50
2022-08-04T18:24:56.248Z,25.40
2022-08-04T18:27:29.911Z,25.20
2022-08-04T18:30:33.544Z,25.10
2022-08-04T18:33:16.813Z,25.10
2022-08-04T18:36:33.572Z,25.00
2022-08-04T18:38:24.337Z,24.90
2022-08-04T18:40:54.687Z,24.80
2022-08-04T18:53:55.215Z,24.40
2022-08-04T18:56:32.706Z,24.40
2022-08-04T19:44:29.884Z,24.30
2022-08-04T19:47:02.246Z,23.40
2022-08-04T19:50:04.023Z,23.30
2022-08-04T19:52:34.197Z,23.30
2022-08-04T19:55:10.018Z,23.20
2022-08-04T19:57:39.797Z,23.10
2022-08-04T20:00:10.068Z,23.10
2022-08-04T20:02:38.032Z,23.00
2022-08-04T20:05:08.759Z,22.90
2022-08-04T20:07:36.612Z,23.00
2022-08-04T20:10:07.748Z,22.90
2022-08-04T20:12:42.206Z,22.90
2022-08-04T20:15:11.072Z,22.80
2022-08-04T20:18:08.391Z,22.90
2022-08-04T20:20:30.399Z,22.80
2022-08-04T20:22:57.650Z,22.80
2022-08-04T20:25:36.533Z,22.70
2022-08-04T20:28:05.524Z,22.70
2022-08-04T20:30:33.287Z,22.60
2022-08-04T20:33:00.509Z,22.60
2022-08-04T20:35:31.724Z,22.70
2022-08-04T20:38:33.755Z,22.70
2022-08-04T20:41:00.619Z,22.60
2022-08-04T20:43:31.268Z,22.60
2022-08-04T20:45:59.491Z,22.60
2022-08-04T20:48:33.535Z,22.50
2022-08-04T20:51:01.362Z,22.60
2022-08-04T20:53:46.610Z,22.70
2022-08-04T20:56:19.297Z,22.60
2022-08-04T20:58:57.702Z,22.50
2022-08-04T21:01:29.603Z,22.50
2022-08-04T21:04:00.628Z,22.50
2022-08-04T21:06:28.133Z,22.50
2022-08-04T21:08:57.073Z,22.50
2022-08-04T21:11:25.149Z,22.60
2022-08-04T21:14:00.757Z,22.60
2022-08-04T21:16:55.187Z,22.60
2022-08-04T21:19:15.457Z,22.60
2022-08-04T21:21:42.777Z,22.50
2022-08-04T21:24:13.515Z,22.50
2022-08-04T21:26:42.933Z,22.50
2022-08-04T21:29:13.600Z,22.50
2022-08-04T21:31:51.019Z,22.40
2022-08-04T21:34:38.124Z,22.30
2022-08-04T21:37:10.456Z,22.40
2022-08-04T21:39:58.926Z,22.20
2022-08-04T21:42:28.878Z,22.20
2022-08-04T21:44:58.329Z,22.30
2022-08-04T21:47:25.698Z,22.30
2022-08-04T21:49:56.535Z,22.20
2022-08-04T21:52:25.278Z,22.20
2022-08-04T21:54:54.577Z,22.10
2022-08-04T21:57:24.768Z,22.10
2022-08-04T21:59:53.006Z,22.10
2022-08-04T22:02:20.388Z,22.00
2022-08-04T22:04:47.667Z,22.10
2022-08-04T22:07:16.378Z,22.10
2022-08-04T22:09:45.667Z,22.00
2022-08-04T22:12:29.941Z,22.00
2022-08-04T22:14:59.585Z,22.00
2022-08-04T22:17:35.256Z,21.90
2022-08-04T22:20:04.565Z,21.80
2022-08-04T22:22:36.493Z,21.80
2022-08-04T22:25:13.264Z,21.70
2022-08-04T22:27:42.642Z,21.70
2022-08-04T22:30:17.385Z,21.80
2022-08-04T22:32:50.371Z,21.70
2022-08-04T22:35:36.063Z,21.70
2022-08-04T22:38:25.363Z,21.60
2022-08-04T22:41:04.796Z,21.50
2022-08-04T22:43:34.565Z,21.30
2022-08-04T22:46:12.026Z,21.30
2022-08-04T22:48:43.719Z,21.30
2022-08-04T22:51:12.992Z,21.30
2022-08-04T22:53:41.165Z,21.20
2022-08-04T22:56:10.615Z,21.20
2022-08-04T22:58:50.997Z,21.20
2022-08-04T23:01:19.510Z,21.10
2022-08-04T23:03:51.128Z,21.10
2022-08-04T23:06:25.179Z,21.00
2022-08-04T23:08:53.238Z,21.00
2022-08-04T23:11:21.195Z,21.00
2022-08-04T23:13:49.155Z,20.90
2022-08-04T23:16:16.969Z,20.90
2022-08-04T23:18:48.947Z,20.90
2022-08-04T23:21:17.197Z,20.80
2022-08-04T23:24:00.941Z,20.80
2022-08-04T23:26:30.906Z,20.80
2022-08-04T23:28:58.599Z,20.90
2022-08-04T23:31:40.384Z,20.70
2022-08-04T23:34:09.474Z,20.70
2022-08-04T23:36:40.709Z,20.60
2022-08-04T23:39:08.214Z,20.70
2022-08-04T23:41:54.186Z,20.60
2022-08-04T23:44:26.931Z,20.70
2022-08-04T23:47:02.725Z,20.70
2022-08-04T23:49:43.457Z,20.60
2022-08-04T23:52:23.204Z,20.60
2022-08-04T23:54:55.320Z,20.50
2022-08-04T23:57:22.742Z,20.40
2022-08-04T23:59:54.941Z,20.40
